createdAt,value
2019-03-17T20:01:53.306Z,8.04
2019-03-17T20:04:31.452Z,7.99
2019-03-17T20:06:59.547Z,7.95
2019-03-17T20:09:31.168Z,8.03
2019-03-17T20:12:02.573Z,8.00
2019-03-17T20:14:34.259Z,8.09
2019-03-17T20:17:05.915Z,8.19
2019-03-17T20:19:37.684Z,8.16
2019-03-17T20:22:09.013Z,8.16
2019-03-17T20:24:40.692Z,7.98
2019-03-17T20:27:12.467Z,7.93
2019-03-17T20:29:43.871Z,7.88
2019-03-17T20:32:15.502Z,7.95
2019-03-17T20:34:47.329Z,7.76
2019-03-17T20:37:19.196Z,7.77
2019-03-17T20:39:54.004Z,7.76
2019-03-17T20:42:24.763Z,7.81
2019-03-17T20:44:56.416Z,7.75
2019-03-17T20:47:29.668Z,7.76
2019-03-17T20:50:01.559Z,7.73
2019-03-17T20:52:33.231Z,7.74
2019-03-17T20:55:05.604Z,7.76
2019-03-17T20:57:37.484Z,7.90
2019-03-17T21:00:11.078Z,8.01
2019-03-17T21:02:42.878Z,7.94
2019-03-17T21:05:15.290Z,7.77
2019-03-17T21:07:47.047Z,7.65
2019-03-17T21:10:18.597Z,7.67
2019-03-17T21:12:50.117Z,7.56
2019-03-17T21:15:21.955Z,7.56
2019-03-17T21:17:53.815Z,7.56
2019-03-17T21:20:25.975Z,7.51
2019-03-17T21:22:57.806Z,7.67
2019-03-17T21:25:29.324Z,7.61
2019-03-17T21:28:01.072Z,7.58
2019-03-17T21:30:32.946Z,7.58
2019-03-17T21:33:04.613Z,7.51
2019-03-17T21:35:36.395Z,7.48
2019-03-17T21:38:08.063Z,7.41
2019-03-17T21:40:56.187Z,7.43
2019-03-17T21:43:14.523Z,7.32
2019-03-17T21:45:46.195Z,7.37
2019-03-17T21:48:17.707Z,7.39
2019-03-17T21:50:49.369Z,7.28
2019-03-17T21:53:20.896Z,7.43
2019-03-17T21:55:54.189Z,7.34
2019-03-17T21:58:25.805Z,7.31
2019-03-17T22:00:57.497Z,7.35
2019-03-17T22:03:30.826Z,7.18
2019-03-17T22:06:04.427Z,7.28
2019-03-17T22:08:37.551Z,7.26
2019-03-17T22:11:09.441Z,7.23
2019-03-17T22:13:41.236Z,7.29
2019-03-17T22:16:12.573Z,7.23
2019-03-17T22:18:44.031Z,7.18
2019-03-17T22:21:15.530Z,7.29
2019-03-17T22:23:47.297Z,7.26
2019-03-17T22:26:19.380Z,7.21
2019-03-17T22:28:51.390Z,7.12
2019-03-17T22:31:23.076Z,7.25
2019-03-17T22:33:54.721Z,7.19
2019-03-17T22:36:26.257Z,7.20
2019-03-17T22:38:58.407Z,7.30
2019-03-17T22:41:30.455Z,7.31
2019-03-17T22:44:02.523Z,7.37
2019-03-17T22:46:34.026Z,7.35
2019-03-17T22:49:06.094Z,7.31
2019-03-17T22:51:37.879Z,7.34
2019-03-17T22:54:09.584Z,7.41
2019-03-17T22:56:41.329Z,7.42
2019-03-17T22:59:13.412Z,7.29
2019-03-17T23:01:45.219Z,7.26
2019-03-17T23:04:17.401Z,7.27
2019-03-17T23:06:49.632Z,7.28
2019-03-17T23:09:21.761Z,7.20
2019-03-17T23:11:53.706Z,7.30
2019-03-17T23:14:36.217Z,7.31
2019-03-17T23:16:59.806Z,7.32
2019-03-17T23:19:31.831Z,7.23
2019-03-17T23:22:04.065Z,7.17
2019-03-17T23:24:36.079Z,7.20
2019-03-17T23:27:08.194Z,7.27
2019-03-17T23:29:40.343Z,7.27
2019-03-17T23:32:12.228Z,7.27
2019-03-17T23:34:44.199Z,7.18
2019-03-17T23:37:16.058Z,7.20
2019-03-17T23:39:48.031Z,7.18
2019-03-17T23:42:20.004Z,7.21
2019-03-17T23:44:51.823Z,7.20
2019-03-17T23:47:23.697Z,7.27
2019-03-17T23:49:55.682Z,7.25
2019-03-17T23:52:27.761Z,7.10
2019-03-17T23:54:59.693Z,7.19
2019-03-17T23:57:33.396Z,7.20
